createdAt,value
2023-03-12T00:01:22.222Z,100624.25
2023-03-12T00:03:49.930Z,100626.84
2023-03-12T00:06:19.348Z,100626.88
2023-03-12T00:08:47.032Z,100627.75
2023-03-12T00:11:17.672Z,100638.00
2023-03-12T00:13:45.137Z,100631.94
2023-03-12T00:16:15.142Z,100629.28
2023-03-12T00:18:43.076Z,100632.69
2023-03-12T00:21:10.838Z,100618.69
2023-03-12T00:23:37.772Z,100639.50
2023-03-12T00:26:11.180Z,100640.34
2023-03-12T00:28:38.798Z,100634.28
2023-03-12T00:31:27.192Z,100646.28
2023-03-12T00:33:55.868Z,100650.53
2023-03-12T00:36:26.982Z,100647.91
2023-03-12T00:38:55.115Z,100651.28
2023-03-12T00:41:23.491Z,100658.09
2023-03-12T00:43:51.614Z,100652.00
2023-03-12T00:46:19.467Z,100649.38
2023-03-12T00:48:46.824Z,100657.09
2023-03-12T00:51:13.736Z,100657.00
2023-03-12T00:53:40.727Z,100659.50
2023-03-12T00:56:07.868Z,100673.19
2023-03-12T00:58:34.752Z,100670.56
2023-03-12T01:01:01.837Z,100660.03
2023-03-12T01:03:28.788Z,100663.41
2023-03-12T01:05:55.753Z,100684.88
2023-03-12T01:08:23.388Z,100682.13
2023-03-12T01:10:50.679Z,100688.03
2023-03-12T01:13:18.136Z,100693.03
2023-03-12T01:15:45.176Z,100683.22
2023-03-12T01:18:13.175Z,100687.34
2023-03-12T01:20:41.020Z,100701.13
2023-03-12T01:23:08.863Z,100699.28
2023-03-12T01:25:36.653Z,100698.28
2023-03-12T01:28:04.414Z,100705.13
2023-03-12T01:30:31.632Z,100702.41
2023-03-12T01:32:59.004Z,100707.56
2023-03-12T01:35:26.277Z,100702.31
2023-03-12T01:37:53.468Z,100709.16
2023-03-12T01:40:25.543Z,100707.38
2023-03-12T01:42:56.860Z,100703.78
2023-03-12T01:46:04.853Z,100707.09
2023-03-12T01:48:40.106Z,100705.25
2023-03-12T01:51:11.225Z,100709.44
2023-03-12T01:53:40.502Z,100711.06
2023-03-12T01:56:08.959Z,100713.63
2023-03-12T01:58:40.561Z,100713.56
2023-03-12T02:01:07.563Z,100710.03
2023-03-12T02:03:36.050Z,100712.59
2023-03-12T02:06:10.089Z,100710.81
2023-03-12T02:08:41.807Z,100706.50
2023-03-12T02:11:08.922Z,100708.22
2023-03-12T02:13:37.532Z,100721.88
2023-03-12T02:16:05.096Z,100709.03
2023-03-12T02:18:34.111Z,100707.28
2023-03-12T02:21:24.402Z,100716.63
2023-03-12T02:24:26.177Z,100703.50
2023-03-12T02:26:53.221Z,100712.22
2023-03-12T02:29:20.521Z,100715.50
2023-03-12T02:31:53.046Z,100730.81
2023-03-12T02:34:20.106Z,100725.63
2023-03-12T02:36:48.546Z,100725.50
2023-03-12T02:39:16.257Z,100720.25
2023-03-12T02:41:53.799Z,100718.38
2023-03-12T02:44:24.466Z,100720.00
2023-03-12T02:46:56.439Z,100728.47
2023-03-12T02:49:27.647Z,100736.03
2023-03-12T02:51:55.029Z,100740.22
2023-03-12T02:54:23.090Z,100739.19
2023-03-12T02:56:50.913Z,100735.66
2023-03-12T02:59:21.128Z,100731.84
2023-03-12T03:01:59.957Z,100754.28
2023-03-12T03:04:29.763Z,100754.19
2023-03-12T03:06:57.131Z,100766.03
2023-03-12T03:09:25.249Z,100757.38
2023-03-12T03:11:52.469Z,100759.75
2023-03-12T03:14:20.167Z,100765.81
2023-03-12T03:16:50.436Z,100761.47
2023-03-12T03:19:17.402Z,100764.78
2023-03-12T03:21:44.476Z,100772.38
2023-03-12T03:24:11.513Z,100770.56
2023-03-12T03:26:38.545Z,100772.19
2023-03-12T03:29:05.442Z,100787.50
2023-03-12T03:31:32.568Z,100778.81
2023-03-12T03:33:59.592Z,100781.31
2023-03-12T03:36:27.120Z,100783.81
2023-03-12T03:39:01.156Z,100781.13
2023-03-12T03:41:30.185Z,100785.31
2023-03-12T03:43:58.603Z,100786.16
2023-03-12T03:46:26.671Z,100781.69
2023-03-12T03:48:59.256Z,100788.44
2023-03-12T03:51:27.241Z,100784.06
2023-03-12T03:54:00.416Z,100786.59
2023-03-12T03:56:27.896Z,100786.47
2023-03-12T03:58:54.874Z,100793.25
2023-03-12T04:01:22.684Z,100794.84
2023-03-12T04:03:50.947Z,100804.19
2023-03-12T04:06:18.417Z,100807.56
2023-03-12T04:08:45.869Z,100804.94
2023-03-12T04:11:21.080Z,100803.19
2023-03-12T04:13:49.236Z,100811.69
2023-03-12T04:16:18.752Z,100814.25
2023-03-12T04:18:46.614Z,100818.53
2023-03-12T04:21:15.320Z,100818.53
2023-03-12T04:23:43.482Z,100816.78
2023-03-12T04:26:12.466Z,100814.97
2023-03-12T04:28:39.943Z,100821.84
2023-03-12T04:31:08.962Z,100819.03
2023-03-12T04:33:40.972Z,100814.88
2023-03-12T04:36:09.674Z,100809.50
2023-03-12T04:38:39.771Z,100824.22
2023-03-12T04:41:12.447Z,100824.22
2023-03-12T04:43:44.495Z,100821.59
2023-03-12T04:46:12.128Z,100818.97
2023-03-12T04:48:40.287Z,100821.44
2023-03-12T04:51:07.356Z,100823.16
2023-03-12T04:53:34.917Z,100823.97
2023-03-12T04:56:02.704Z,100828.22
2023-03-12T04:58:30.843Z,100824.72
2023-03-12T05:00:58.160Z,100833.28
2023-03-12T05:03:25.401Z,100824.63
2023-03-12T05:05:52.412Z,100842.59
2023-03-12T05:08:19.377Z,100840.03
2023-03-12T05:10:46.877Z,100836.59
2023-03-12T05:13:20.618Z,100839.16
2023-03-12T05:15:50.704Z,100840.00
2023-03-12T05:18:20.505Z,100837.44
2023-03-12T05:20:57.254Z,100837.22
2023-03-12T05:23:24.394Z,100851.88
2023-03-12T05:25:51.314Z,100843.31
2023-03-12T05:28:20.136Z,100847.41
2023-03-12T05:30:47.288Z,100857.00
2023-03-12T05:33:14.840Z,100854.44
2023-03-12T05:35:41.732Z,100856.16
2023-03-12T05:38:08.682Z,100862.94
2023-03-12T05:40:35.604Z,100867.28
2023-03-12T05:43:02.516Z,100864.63
2023-03-12T05:45:29.506Z,100871.53
2023-03-12T05:47:58.668Z,100877.47
2023-03-12T05:50:27.556Z,100873.22
2023-03-12T05:52:54.816Z,100872.34
2023-03-12T05:55:21.724Z,100884.38
2023-03-12T05:57:48.707Z,100890.38
2023-03-12T06:00:16.455Z,100892.88
2023-03-12T06:02:52.148Z,100895.44
2023-03-12T06:05:19.607Z,100890.31
2023-03-12T06:07:46.577Z,100895.31
2023-03-12T06:10:13.601Z,100897.25
2023-03-12T06:12:40.604Z,100902.38
2023-03-12T06:15:08.084Z,100903.25
2023-03-12T06:17:35.254Z,100893.00
2023-03-12T06:20:02.293Z,100906.84
2023-03-12T06:22:29.987Z,100895.75
2023-03-12T06:24:56.964Z,100896.72
2023-03-12T06:27:24.574Z,100892.25
2023-03-12T06:29:51.497Z,100905.41
2023-03-12T06:32:18.620Z,100904.66
2023-03-12T06:34:45.812Z,100909.00
2023-03-12T06:37:12.799Z,100910.84
2023-03-12T06:39:40.182Z,100908.25
2023-03-12T06:42:07.267Z,100915.22
2023-03-12T06:44:34.214Z,100908.38
2023-03-12T06:47:01.126Z,100905.06
2023-03-12T06:49:32.088Z,100903.34
2023-03-12T06:51:59.149Z,100916.50
2023-03-12T06:54:26.044Z,100912.31
2023-03-12T06:56:53.440Z,100913.38
2023-03-12T06:59:21.735Z,100918.69
2023-03-12T07:01:49.406Z,100918.88
2023-03-12T07:04:16.364Z,100921.72
2023-03-12T07:06:43.640Z,100919.28
2023-03-12T07:09:10.622Z,100928.06
2023-03-12T07:11:37.509Z,100912.72
2023-03-12T07:14:04.418Z,100918.97
2023-03-12T07:16:31.582Z,100912.28
2023-03-12T07:18:59.031Z,100917.59
2023-03-12T07:21:26.035Z,100915.16
2023-03-12T07:23:53.482Z,100911.75
2023-03-12T07:26:20.773Z,100922.41
2023-03-12T07:28:47.914Z,100910.56
2023-03-12T07:31:14.993Z,100906.53
2023-03-12T07:33:42.203Z,100907.59
2023-03-12T07:36:09.292Z,100910.38
2023-03-12T07:38:36.330Z,100916.56
2023-03-12T07:41:03.309Z,100912.41
2023-03-12T07:43:30.473Z,100907.44
2023-03-12T07:45:57.401Z,100911.91
2023-03-12T07:48:24.381Z,100922.38
2023-03-12T07:50:51.335Z,100908.56
2023-03-12T07:53:18.506Z,100909.66
2023-03-12T07:55:47.028Z,100929.63
2023-03-12T07:58:15.997Z,100921.19
2023-03-12T08:00:43.163Z,100934.22
2023-03-12T08:03:10.482Z,100918.00
2023-03-12T08:05:37.558Z,100932.00
2023-03-12T08:08:04.563Z,100924.47
2023-03-12T08:10:31.820Z,100926.38
2023-03-12T08:12:58.843Z,100929.94
2023-03-12T08:15:25.805Z,100926.56
2023-03-12T08:17:52.781Z,100939.66
2023-03-12T08:20:19.743Z,100939.91
2023-03-12T08:22:46.638Z,100946.03
2023-03-12T08:25:13.585Z,100938.59
2023-03-12T08:27:40.513Z,100942.22
2023-03-12T08:30:08.269Z,100942.41
2023-03-12T08:32:35.251Z,100947.81
2023-03-12T08:35:02.450Z,100932.38
2023-03-12T08:37:30.320Z,100944.75
2023-03-12T08:39:57.492Z,100940.63
2023-03-12T08:42:24.386Z,100946.81
2023-03-12T08:44:51.264Z,100948.72
2023-03-12T08:47:18.160Z,100942.78
2023-03-12T08:49:45.067Z,100945.50
2023-03-12T08:52:11.934Z,100953.41
2023-03-12T08:54:38.832Z,100943.97
2023-03-12T08:57:05.712Z,100963.31
2023-03-12T08:59:32.614Z,100955.13
2023-03-12T09:01:59.546Z,100951.00
2023-03-12T09:04:26.733Z,100959.16
2023-03-12T09:06:53.615Z,100950.88
2023-03-12T09:09:20.524Z,100953.78
2023-03-12T09:11:47.404Z,100944.72
2023-03-12T09:14:57.562Z,100937.19
2023-03-12T09:17:02.214Z,100947.06
2023-03-12T09:19:29.508Z,100933.50
2023-03-12T09:21:56.438Z,100935.63
2023-03-12T09:24:23.473Z,100932.44
2023-03-12T09:26:50.668Z,100941.41
2023-03-12T09:29:17.603Z,100941.72
2023-03-12T09:31:44.572Z,100944.56
2023-03-12T09:34:11.485Z,100932.59
2023-03-12T09:36:38.373Z,100930.28
2023-03-12T09:39:05.806Z,100934.09
2023-03-12T09:41:39.724Z,100939.38
2023-03-12T09:44:33.640Z,100936.06
2023-03-12T09:47:08.752Z,100937.91
2023-03-12T09:49:44.846Z,100935.47
2023-03-12T09:52:24.831Z,100933.03
2023-03-12T09:55:08.757Z,100929.69
2023-03-12T09:57:35.655Z,100932.41
2023-03-12T10:00:02.768Z,100937.75
2023-03-12T10:02:53.081Z,100922.44
2023-03-12T10:05:39.277Z,100925.34
2023-03-12T10:08:32.887Z,100915.25
2023-03-12T10:11:32.186Z,100913.72
2023-03-12T10:14:26.153Z,100904.44
2023-03-12T10:17:41.269Z,100907.19
2023-03-12T10:20:32.274Z,100902.09
2023-03-12T10:23:20.612Z,100897.78
2023-03-12T10:26:00.475Z,100893.47
2023-03-12T10:28:40.731Z,100907.38
2023-03-12T10:31:26.572Z,100903.97
2023-03-12T10:33:59.162Z,100907.47
2023-03-12T10:36:35.705Z,100905.84
2023-03-12T10:39:03.512Z,100916.34
2023-03-12T10:41:35.078Z,100916.47
2023-03-12T10:44:07.826Z,100914.00
2023-03-12T10:46:37.684Z,100912.44
2023-03-12T10:49:28.090Z,100910.91
2023-03-12T10:52:02.751Z,100905.88
2023-03-12T10:54:40.589Z,100908.56
2023-03-12T10:57:09.298Z,100900.06
2023-03-12T10:59:43.357Z,100908.84
2023-03-12T11:02:32.631Z,100900.34
2023-03-12T11:05:02.050Z,100893.56
2023-03-12T11:07:32.620Z,100898.00
2023-03-12T11:10:08.531Z,100888.63
2023-03-12T11:12:39.724Z,100889.69
2023-03-12T11:15:31.821Z,100875.09
2023-03-12T11:18:26.387Z,100865.66
2023-03-12T11:21:17.288Z,100866.75
2023-03-12T11:23:57.622Z,100872.91
2023-03-12T11:26:35.553Z,100871.28
2023-03-12T11:29:06.367Z,100852.22
2023-03-12T11:31:56.119Z,100868.81
2023-03-12T11:34:28.726Z,100852.47
2023-03-12T11:37:21.478Z,100867.34
2023-03-12T11:40:24.241Z,100872.63
2023-03-12T11:43:43.219Z,100856.31
2023-03-12T11:46:40.780Z,100851.19
2023-03-12T11:49:53.831Z,100850.41
2023-03-12T11:52:57.539Z,100832.28
2023-03-12T11:55:52.682Z,100824.56
2023-03-12T11:59:08.226Z,100810.75
2023-03-12T12:02:12.105Z,100805.63
2023-03-12T12:05:19.125Z,100803.09
2023-03-12T12:08:08.168Z,100786.69
2023-03-12T12:10:53.244Z,100792.00
2023-03-12T12:14:04.590Z,100785.97
2023-03-12T12:17:20.352Z,100779.94
2023-03-12T12:20:27.219Z,100789.50
2023-03-12T12:23:25.262Z,100779.16
2023-03-12T12:26:09.939Z,100771.38
2023-03-12T12:29:13.969Z,100774.88
2023-03-12T12:31:58.462Z,100775.78
2023-03-12T12:35:05.374Z,100757.53
2023-03-12T12:37:56.667Z,100756.69
2023-03-12T12:41:13.183Z,100761.84
2023-03-12T12:43:41.591Z,100760.97
2023-03-12T12:46:17.719Z,100757.50
2023-03-12T12:48:56.913Z,100759.22
2023-03-12T12:51:30.646Z,100756.63
2023-03-12T12:54:26.410Z,100759.22
2023-03-12T12:57:16.349Z,100760.06
2023-03-12T13:00:22.364Z,100753.16
2023-03-12T13:02:49.726Z,100767.06
2023-03-12T13:05:54.038Z,100753.16
2023-03-12T13:08:42.269Z,100760.13
2023-03-12T13:11:18.660Z,100747.13
2023-03-12T13:13:54.189Z,100739.25
2023-03-12T13:16:30.209Z,100749.72
2023-03-12T13:19:13.649Z,100750.56
2023-03-12T13:22:15.188Z,100747.06
2023-03-12T13:25:24.089Z,100724.53
2023-03-12T13:28:00.872Z,100719.31
2023-03-12T13:30:33.512Z,100712.34
2023-03-12T13:33:03.136Z,100730.56
2023-03-12T13:35:38.979Z,100724.47
2023-03-12T13:38:12.518Z,100716.66
2023-03-12T13:41:03.249Z,100717.47
2023-03-12T13:43:39.360Z,100709.66
2023-03-12T13:46:42.428Z,100703.50
2023-03-12T13:49:15.246Z,100705.19
2023-03-12T13:51:55.854Z,100707.78
2023-03-12T13:54:29.918Z,100712.09
2023-03-12T13:57:11.913Z,100719.88
2023-03-12T13:59:45.782Z,100712.94
2023-03-12T14:02:37.044Z,100713.78
2023-03-12T14:05:11.071Z,100716.38
2023-03-12T14:07:58.127Z,100703.34
2023-03-12T14:11:16.741Z,100704.22
2023-03-12T14:14:24.192Z,100703.34
2023-03-12T14:16:57.414Z,100707.63
2023-03-12T14:19:27.960Z,100692.03
2023-03-12T14:22:00.061Z,100676.44
2023-03-12T14:24:35.272Z,100665.19
2023-03-12T14:27:05.771Z,100654.81
2023-03-12T14:29:45.648Z,100647.88
2023-03-12T14:32:21.160Z,100650.47
2023-03-12T14:35:17.574Z,100642.63
2023-03-12T14:38:05.418Z,100633.94
2023-03-12T14:41:00.705Z,100631.34
2023-03-12T14:43:32.533Z,100632.19
2023-03-12T14:46:04.814Z,100645.13
2023-03-12T14:48:37.138Z,100646.81
2023-03-12T14:51:06.831Z,100649.41
2023-03-12T14:53:37.330Z,100638.03
2023-03-12T14:56:13.899Z,100638.94
2023-03-12T14:58:49.623Z,100629.38
2023-03-12T15:01:32.447Z,100620.72
2023-03-12T15:04:03.003Z,100615.50
2023-03-12T15:06:32.832Z,100608.59
2023-03-12T15:09:04.273Z,100612.00
2023-03-12T15:11:34.880Z,100586.81
2023-03-12T15:14:07.275Z,100592.88
2023-03-12T15:16:35.092Z,100585.03
2023-03-12T15:19:03.753Z,100581.53
2023-03-12T15:21:34.835Z,100579.72
2023-03-12T15:24:02.922Z,100581.41
2023-03-12T15:26:34.381Z,100582.25
2023-03-12T15:29:27.263Z,100583.03
2023-03-12T15:31:58.189Z,100580.41
2023-03-12T15:34:27.908Z,100567.38
2023-03-12T15:36:54.958Z,100563.84
2023-03-12T15:39:32.996Z,100557.72
2023-03-12T15:42:10.376Z,100560.28
2023-03-12T15:44:59.914Z,100570.63
2023-03-12T15:47:33.185Z,100587.06
2023-03-12T15:50:42.673Z,100593.91
2023-03-12T15:53:12.159Z,100586.03
2023-03-12T15:55:39.514Z,100583.38
2023-03-12T15:58:31.766Z,100567.72
2023-03-12T16:01:16.958Z,100561.66
2023-03-12T16:03:45.820Z,100565.84
2023-03-12T16:06:18.879Z,100551.13
2023-03-12T16:08:50.527Z,100551.00
2023-03-12T16:11:30.871Z,100558.78
2023-03-12T16:14:29.742Z,100556.97
2023-03-12T16:16:56.664Z,100552.53
2023-03-12T16:19:26.055Z,100549.91
2023-03-12T16:21:52.990Z,100549.75
2023-03-12T16:24:19.860Z,100546.38
2023-03-12T16:26:53.922Z,100557.50
2023-03-12T16:29:22.232Z,100544.47
2023-03-12T16:31:55.631Z,100537.50
2023-03-12T16:34:22.970Z,100532.31
2023-03-12T16:36:50.298Z,100539.16
2023-03-12T16:39:18.913Z,100532.22
2023-03-12T16:41:46.665Z,100542.56
2023-03-12T16:44:21.471Z,100529.56
2023-03-12T16:46:48.718Z,100526.94
2023-03-12T16:49:18.062Z,100539.88
2023-03-12T16:51:45.043Z,100524.25
2023-03-12T16:54:12.556Z,100512.94
2023-03-12T16:56:44.947Z,100527.53
2023-03-12T16:59:25.927Z,100523.19
2023-03-12T17:01:53.486Z,100528.31
2023-03-12T17:04:20.498Z,100518.75
2023-03-12T17:06:47.414Z,100528.19
2023-03-12T17:09:14.335Z,100518.69
2023-03-12T17:11:41.290Z,100512.59
2023-03-12T17:14:22.020Z,100504.75
2023-03-12T17:16:49.508Z,100485.59
2023-03-12T17:19:16.874Z,100500.25
2023-03-12T17:21:44.267Z,100496.72
2023-03-12T17:24:14.050Z,100508.78
2023-03-12T17:26:43.011Z,100509.56
2023-03-12T17:29:09.911Z,100502.63
2023-03-12T17:31:37.597Z,100506.91
2023-03-12T17:34:04.802Z,100508.53
2023-03-12T17:36:31.691Z,100498.16
2023-03-12T17:38:58.623Z,100499.81
2023-03-12T17:41:27.348Z,100488.47
2023-03-12T17:43:58.396Z,100492.88
2023-03-12T17:46:25.359Z,100496.34
2023-03-12T17:48:52.710Z,100498.00
2023-03-12T17:51:21.048Z,100503.19
2023-03-12T17:53:48.233Z,100507.41
2023-03-12T17:56:17.905Z,100489.34
2023-03-12T17:58:45.598Z,100491.84
2023-03-12T18:01:13.531Z,100478.00
2023-03-12T18:03:40.649Z,100477.09
2023-03-12T18:06:07.918Z,100482.19
2023-03-12T18:08:34.817Z,100484.72
2023-03-12T18:11:02.955Z,100467.28
2023-03-12T18:13:30.785Z,100466.44
2023-03-12T18:15:58.600Z,100470.78
2023-03-12T18:18:26.881Z,100471.56
2023-03-12T18:20:54.260Z,100454.97
2023-03-12T18:23:21.210Z,100467.03
2023-03-12T18:25:48.089Z,100461.75
2023-03-12T18:28:15.339Z,100464.28
2023-03-12T18:30:44.854Z,100459.84
2023-03-12T18:33:11.696Z,100465.81
2023-03-12T18:35:38.622Z,100451.06
2023-03-12T18:38:05.498Z,100436.19
2023-03-12T18:40:35.113Z,100429.34
2023-03-12T18:43:02.868Z,100442.16
2023-03-12T18:45:30.387Z,100437.69
2023-03-12T18:47:57.283Z,100441.16
2023-03-12T18:50:24.273Z,100439.34
2023-03-12T18:52:51.154Z,100432.28
2023-03-12T18:55:18.331Z,100434.00
2023-03-12T18:57:47.609Z,100435.72
2023-03-12T19:00:17.739Z,100437.38
2023-03-12T19:02:47.978Z,100426.19
2023-03-12T19:05:15.876Z,100428.69
2023-03-12T19:07:43.606Z,100423.63
2023-03-12T19:10:11.992Z,100415.78
2023-03-12T19:12:50.842Z,100426.06
2023-03-12T19:15:19.240Z,100425.13
2023-03-12T19:17:46.235Z,100411.31
2023-03-12T19:20:13.309Z,100416.41
2023-03-12T19:22:40.266Z,100414.63
2023-03-12T19:25:07.951Z,100407.66
2023-03-12T19:27:34.866Z,100404.16
2023-03-12T19:30:01.831Z,100444.44
2023-03-12T19:32:40.577Z,100394.84
2023-03-12T19:35:11.749Z,100390.59
2023-03-12T19:37:38.685Z,100388.03
2023-03-12T19:40:06.586Z,100381.91
2023-03-12T19:42:33.710Z,100379.22
2023-03-12T19:45:00.653Z,100385.09
2023-03-12T19:47:28.071Z,100376.31
2023-03-12T19:49:54.950Z,100365.78
2023-03-12T19:52:21.865Z,100367.53
2023-03-12T19:55:02.959Z,100370.94
2023-03-12T19:57:32.423Z,100366.63
2023-03-12T19:59:59.326Z,100367.47
2023-03-12T20:02:26.536Z,100358.84
2023-03-12T20:04:55.215Z,100343.28
2023-03-12T20:07:22.578Z,100346.69
2023-03-12T20:09:49.659Z,100343.13
2023-03-12T20:12:16.572Z,100360.41
2023-03-12T20:14:43.466Z,100359.56
2023-03-12T20:17:12.091Z,100352.75
2023-03-12T20:19:39.163Z,100353.69
2023-03-12T20:22:06.976Z,100357.06
2023-03-12T20:24:33.966Z,100360.53
2023-03-12T20:27:01.094Z,100350.28
2023-03-12T20:29:27.973Z,100347.72
2023-03-12T20:31:54.990Z,100346.75
2023-03-12T20:34:22.186Z,100341.63
2023-03-12T20:36:49.099Z,100336.44
2023-03-12T20:39:15.999Z,100327.72
2023-03-12T20:41:42.897Z,100337.34
2023-03-12T20:44:09.894Z,100327.06
2023-03-12T20:46:36.782Z,100337.44
2023-03-12T20:49:03.669Z,100331.47
2023-03-12T20:51:30.624Z,100327.13
2023-03-12T20:53:57.871Z,100336.69
2023-03-12T20:56:24.772Z,100337.59
2023-03-12T20:58:52.244Z,100344.59
2023-03-12T21:01:19.221Z,100351.56
2023-03-12T21:03:46.217Z,100328.41
2023-03-12T21:06:13.856Z,100325.00
2023-03-12T21:08:40.748Z,100318.19
2023-03-12T21:11:08.494Z,100305.31
2023-03-12T21:13:36.676Z,100301.94
2023-03-12T21:16:06.607Z,100302.03
2023-03-12T21:18:33.646Z,100296.88
2023-03-12T21:21:08.370Z,100281.44
2023-03-12T21:23:36.237Z,100279.75
2023-03-12T21:26:08.969Z,100280.66
2023-03-12T21:28:36.253Z,100285.00
2023-03-12T21:31:15.656Z,100283.34
2023-03-12T21:33:42.939Z,100292.00
2023-03-12T21:36:13.178Z,100286.00
2023-03-12T21:38:42.717Z,100298.06
2023-03-12T21:41:16.018Z,100299.84
2023-03-12T21:43:44.481Z,100292.13
2023-03-12T21:46:18.889Z,100299.06
2023-03-12T21:48:48.014Z,100290.47
2023-03-12T21:51:17.221Z,100280.13
2023-03-12T21:53:44.406Z,100277.47
2023-03-12T21:56:11.824Z,100289.66
2023-03-12T21:58:38.941Z,100291.41
2023-03-12T22:01:13.703Z,100281.94
2023-03-12T22:03:41.993Z,100284.59
2023-03-12T22:06:10.169Z,100287.28
2023-03-12T22:08:37.645Z,100275.28
2023-03-12T22:11:05.925Z,100271.00
2023-03-12T22:13:32.798Z,100273.63
2023-03-12T22:16:02.737Z,100259.91
2023-03-12T22:18:30.227Z,100263.38
2023-03-12T22:21:04.586Z,100259.97
2023-03-12T22:23:31.853Z,100254.84
2023-03-12T22:26:06.347Z,100253.13
2023-03-12T22:28:33.444Z,100246.19
2023-03-12T22:31:03.532Z,100254.13
2023-03-12T22:33:30.870Z,100251.56
2023-03-12T22:35:58.083Z,100247.25
2023-03-12T22:38:25.432Z,100255.91
2023-03-12T22:40:54.913Z,100252.50
2023-03-12T22:43:22.435Z,100244.88
2023-03-12T22:45:53.980Z,100237.16
2023-03-12T22:48:20.880Z,100238.91
2023-03-12T22:50:54.437Z,100245.00
2023-03-12T22:53:21.466Z,100251.91
2023-03-12T22:56:04.732Z,100238.16
2023-03-12T22:58:31.987Z,100243.38
2023-03-12T23:01:05.020Z,100243.44
2023-03-12T23:03:33.877Z,100233.16
2023-03-12T23:06:01.742Z,100235.75
2023-03-12T23:08:29.582Z,100233.22
2023-03-12T23:10:59.939Z,100238.41
2023-03-12T23:13:29.456Z,100233.31
2023-03-12T23:16:05.551Z,100225.59
2023-03-12T23:18:33.150Z,100219.59
2023-03-12T23:21:03.818Z,100221.38
2023-03-12T23:23:30.879Z,100212.78
2023-03-12T23:26:00.146Z,100205.06
2023-03-12T23:28:28.745Z,100206.78
2023-03-12T23:31:04.822Z,100206.84
2023-03-12T23:33:32.923Z,100225.00
2023-03-12T23:36:02.925Z,100222.44
2023-03-12T23:38:31.307Z,100225.91
2023-03-12T23:41:15.708Z,100216.47
2023-03-12T23:43:43.158Z,100216.50
2023-03-12T23:46:11.810Z,100205.31
2023-03-12T23:48:40.334Z,100202.78
2023-03-12T23:51:13.917Z,100199.38
2023-03-12T23:53:43.896Z,100201.94
2023-03-12T23:56:14.907Z,100191.63
2023-03-12T23:58:42.858Z,100197.69
